Time;durP1;ratioP1;P1;durP2;ratioP2;P2;SDS_P1;SDS_P2;PMS_P1;PMS_P2;Temp;Humidity;BMP_temperature;BMP_pressure;BME280_temperature;BME280_humidity;BME280_pressure;Samples;Min_cycle;Max_cycle;Signal;HPM_P1;HPM_P2
2023/11/29 00:01:17;;;;;;;17.83;9.50;;;;;;;-2.37;100.00;96458.47;5041897;28;20041;-64
2023/11/29 00:03:44;;;;;;;18.63;9.90;;;;;;;-2.17;100.00;96465.75;5046503;28;20047;-64
2023/11/29 00:06:10;;;;;;;15.50;9.15;;;;;;;-2.26;100.00;96454.47;5044831;28;20053;-65
2023/11/29 00:08:37;;;;;;;15.18;8.60;;;;;;;-2.14;100.00;96454.75;5038777;28;20045;-64
2023/11/29 00:11:05;;;;;;;15.20;9.63;;;;;;;-2.16;100.00;96453.31;5039086;28;20119;-64
2023/11/29 00:13:32;;;;;;;15.07;8.98;;;;;;;-2.13;100.00;96455.56;5031656;28;20069;-64
2023/11/29 00:15:58;;;;;;;15.13;9.48;;;;;;;-2.03;100.00;96455.25;5042825;28;20040;-64
2023/11/29 00:18:25;;;;;;;17.20;8.50;;;;;;;-1.97;100.00;96451.78;5035908;28;20045;-64
2023/11/29 00:20:52;;;;;;;16.42;9.05;;;;;;;-2.36;100.00;96446.03;5038683;28;20048;-63
2023/11/29 00:23:18;;;;;;;15.07;9.23;;;;;;;-2.42;100.00;96444.97;5033116;28;20045;-63
2023/11/29 00:25:45;;;;;;;14.90;8.77;;;;;;;-2.38;100.00;96437.44;5047018;28;20055;-64
2023/11/29 00:28:11;;;;;;;16.30;9.13;;;;;;;-2.43;100.00;96430.06;5037538;28;20044;-63
2023/11/29 00:30:38;;;;;;;14.82;8.38;;;;;;;-2.39;100.00;96435.81;5033213;28;20224;-63
2023/11/29 00:33:04;;;;;;;15.32;8.55;;;;;;;-2.43;100.00;96423.94;5051048;28;20041;-64
2023/11/29 00:35:31;;;;;;;17.38;9.23;;;;;;;-2.41;100.00;96421.91;5042366;28;20124;-64
2023/11/29 00:37:58;;;;;;;17.42;9.23;;;;;;;-2.42;100.00;96421.09;5037426;28;20127;-64
2023/11/29 00:40:24;;;;;;;15.30;9.15;;;;;;;-2.43;100.00;96426.59;5032741;28;20037;-64
2023/11/29 00:42:51;;;;;;;14.40;8.30;;;;;;;-2.30;100.00;96428.50;5041428;28;20534;-65
2023/11/29 00:45:29;;;;;;;17.65;9.65;;;;;;;-2.27;100.00;96428.97;5048175;28;20152;-64
2023/11/29 00:47:56;;;;;;;16.05;9.02;;;;;;;-2.27;100.00;96431.63;5033967;28;20053;-65
2023/11/29 00:50:22;;;;;;;15.15;9.02;;;;;;;-2.32;100.00;96425.25;5053948;28;20499;-64
2023/11/29 00:52:49;;;;;;;15.65;9.13;;;;;;;-2.33;100.00;96423.63;5034171;28;20060;-64
2023/11/29 00:55:16;;;;;;;15.43;8.45;;;;;;;-2.36;100.00;96415.03;5033823;28;20120;-64
2023/11/29 00:57:51;;;;;;;13.55;8.30;;;;;;;-2.23;100.00;96411.66;5040094;28;20110;-66
2023/11/29 01:00:18;;;;;;;13.95;7.93;;;;;;;-2.04;100.00;96409.31;5033125;28;20124;-64
2023/11/29 01:02:46;;;;;;;12.95;8.30;;;;;;;-1.97;100.00;96407.53;5038704;28;20033;-63
2023/11/29 01:05:12;;;;;;;14.45;8.60;;;;;;;-1.96;100.00;96405.66;5038766;28;20052;-64
2023/11/29 01:07:39;;;;;;;14.50;8.38;;;;;;;-1.99;100.00;96412.19;5033474;28;20512;-64
2023/11/29 01:10:06;;;;;;;14.80;8.13;;;;;;;-2.01;100.00;96406.28;5029535;28;20247;-64
2023/11/29 01:12:32;;;;;;;13.55;8.20;;;;;;;-2.02;100.00;96409.13;5029645;28;20044;-64
2023/11/29 01:14:59;;;;;;;11.95;7.13;;;;;;;-1.99;100.00;96406.88;5038969;28;20048;-65
2023/11/29 01:17:26;;;;;;;12.48;7.60;;;;;;;-2.06;100.00;96408.69;5037805;28;20037;-64
2023/11/29 01:19:52;;;;;;;12.00;7.88;;;;;;;-1.96;100.00;96408.31;5030295;28;20124;-64
2023/11/29 01:22:19;;;;;;;13.82;8.13;;;;;;;-2.01;100.00;96400.97;5019977;28;20037;-63
2023/11/29 01:24:45;;;;;;;12.95;7.22;;;;;;;-1.97;100.00;96412.00;5024308;28;20116;-64
2023/11/29 01:27:12;;;;;;;13.10;7.97;;;;;;;-1.97;100.00;96404.88;5038422;28;20047;-64
2023/11/29 01:29:38;;;;;;;12.25;7.25;;;;;;;-2.11;100.00;96406.63;5031870;28;20094;-64
2023/11/29 01:32:05;;;;;;;13.25;7.82;;;;;;;-2.10;100.00;96405.59;5026442;28;20045;-64
2023/11/29 01:34:32;;;;;;;13.73;7.80;;;;;;;-2.06;100.00;96405.22;5035455;28;20139;-65
2023/11/29 01:36:58;;;;;;;12.02;6.47;;;;;;;-2.28;100.00;96408.75;5027736;28;20100;-64
2023/11/29 01:39:25;;;;;;;14.75;7.75;;;;;;;-2.38;100.00;96406.47;5028932;28;20115;-65
2023/11/29 01:41:51;;;;;;;11.63;7.53;;;;;;;-2.45;100.00;96402.94;5034718;28;20037;-63
2023/11/29 01:44:18;;;;;;;12.13;7.25;;;;;;;-2.43;100.00;96400.09;5039457;28;20635;-65
2023/11/29 01:46:46;;;;;;;11.05;6.53;;;;;;;-2.34;100.00;96401.56;5024955;28;20647;-63
2023/11/29 01:49:17;;;;;;;11.45;6.60;;;;;;;-2.23;100.00;96395.75;5036498;28;20578;-64
2023/11/29 01:51:44;;;;;;;9.85;5.80;;;;;;;-2.30;100.00;96405.47;5027673;28;20033;-64
2023/11/29 01:54:10;;;;;;;10.25;5.57;;;;;;;-2.26;100.00;96404.09;5032532;28;20567;-63
2023/11/29 01:56:38;;;;;;;9.68;5.22;;;;;;;-2.28;100.00;96405.28;5022942;28;20072;-64
2023/11/29 01:59:04;;;;;;;10.40;5.75;;;;;;;-2.40;100.00;96405.00;5036703;28;20041;-65
2023/11/29 02:01:31;;;;;;;10.00;5.35;;;;;;;-2.51;100.00;96401.88;5037035;28;20037;-64
2023/11/29 02:03:58;;;;;;;8.85;5.88;;;;;;;-2.55;100.00;96403.25;5029935;28;20049;-64
2023/11/29 02:06:25;;;;;;;10.07;5.35;;;;;;;-2.52;100.00;96399.41;5035124;28;20498;-64
2023/11/29 02:08:52;;;;;;;11.68;5.47;;;;;;;-2.84;100.00;96399.75;5036238;28;20052;-63
2023/11/29 02:11:19;;;;;;;13.55;6.15;;;;;;;-3.04;100.00;96394.28;5033976;28;20561;-64
2023/11/29 02:13:46;;;;;;;9.55;5.20;;;;;;;-3.09;100.00;96396.69;5029526;28;20045;-64
2023/11/29 02:16:12;;;;;;;8.77;6.03;;;;;;;-3.02;100.00;96392.28;5031490;28;20047;-64
2023/11/29 02:18:39;;;;;;;9.52;5.38;;;;;;;-3.06;100.00;96377.78;5038168;28;20041;-64
2023/11/29 02:21:06;;;;;;;11.57;6.10;;;;;;;-3.03;100.00;96382.69;5027325;28;20540;-63
2023/11/29 02:23:44;;;;;;;9.73;5.50;;;;;;;-3.07;100.00;96376.13;5028391;28;20037;-64
2023/11/29 02:26:11;;;;;;;9.15;5.38;;;;;;;-3.17;100.00;96379.09;5026670;28;20072;-64
2023/11/29 02:28:37;;;;;;;9.60;5.20;;;;;;;-3.20;100.00;96376.84;5030271;28;20052;-65
2023/11/29 02:31:04;;;;;;;10.20;5.45;;;;;;;-3.21;100.00;96373.34;5023739;28;20044;-64
2023/11/29 02:33:31;;;;;;;10.88;5.68;;;;;;;-3.14;100.00;96368.13;5035261;28;20040;-64
2023/11/29 02:35:58;;;;;;;12.30;6.15;;;;;;;-3.19;100.00;96366.06;5027588;28;20440;-65
2023/11/29 02:38:24;;;;;;;10.02;5.63;;;;;;;-3.30;100.00;96372.66;5025723;28;20056;-64
2023/11/29 02:40:51;;;;;;;9.73;5.30;;;;;;;-3.27;100.00;96366.97;5032567;28;20037;-63
2023/11/29 02:43:17;;;;;;;10.75;5.38;;;;;;;-3.25;100.00;96366.00;5029816;28;20120;-64
2023/11/29 02:45:45;;;;;;;10.30;4.85;;;;;;;-3.20;100.00;96374.19;5031569;28;20702;-65
2023/11/29 02:48:11;;;;;;;13.90;5.97;;;;;;;-3.24;100.00;96373.75;5033330;28;20515;-64
2023/11/29 02:50:38;;;;;;;12.00;6.20;;;;;;;-3.19;100.00;96370.50;5034686;28;20037;-64
2023/11/29 02:53:06;;;;;;;10.50;5.47;;;;;;;-3.02;100.00;96366.59;5035478;28;20056;-64
2023/11/29 02:55:32;;;;;;;10.52;5.30;;;;;;;-2.92;100.00;96360.97;5038966;28;20111;-65
2023/11/29 02:57:59;;;;;;;11.05;6.20;;;;;;;-2.78;100.00;96361.09;5040624;28;20036;-64
2023/11/29 03:00:25;;;;;;;9.85;4.90;;;;;;;-2.74;100.00;96362.34;5034739;28;20041;-65
2023/11/29 03:02:52;;;;;;;9.25;5.07;;;;;;;-2.85;100.00;96362.88;5037790;28;20045;-63
2023/11/29 03:05:19;;;;;;;8.57;5.70;;;;;;;-2.92;100.00;96362.81;5034099;28;20083;-64
2023/11/29 03:07:45;;;;;;;10.43;5.88;;;;;;;-2.96;100.00;96358.91;5030196;28;20736;-63
2023/11/29 03:10:13;;;;;;;9.25;5.32;;;;;;;-3.24;100.00;96357.88;5044264;28;20043;-64
2023/11/29 03:12:40;;;;;;;11.35;5.00;;;;;;;-3.41;100.00;96352.81;5030778;28;20571;-64
2023/11/29 03:15:08;;;;;;;9.18;5.50;;;;;;;-3.27;100.00;96356.38;5036600;28;20037;-64
2023/11/29 03:17:35;;;;;;;9.10;5.35;;;;;;;-3.20;100.00;96351.19;5038900;28;20043;-63
2023/11/29 03:20:03;;;;;;;10.98;5.65;;;;;;;-3.17;100.00;96349.97;5035502;28;20647;-64
2023/11/29 03:22:30;;;;;;;10.07;5.55;;;;;;;-3.34;100.00;96344.94;5035421;28;20056;-64
2023/11/29 03:24:57;;;;;;;10.13;5.82;;;;;;;-3.47;100.00;96345.59;5038311;28;20048;-64
2023/11/29 03:27:23;;;;;;;10.57;5.30;;;;;;;-3.33;100.00;96351.84;5045623;28;20048;-63
2023/11/29 03:29:50;;;;;;;9.23;4.75;;;;;;;-3.31;100.00;96344.53;5044927;28;20025;-65
2023/11/29 03:32:17;;;;;;;11.05;5.82;;;;;;;-3.23;100.00;96350.72;5038844;28;20120;-63
2023/11/29 03:34:43;;;;;;;11.07;5.43;;;;;;;-3.33;100.00;96346.56;5032714;28;20055;-63
2023/11/29 03:37:10;;;;;;;10.05;5.68;;;;;;;-3.81;100.00;96352.38;5033492;28;20064;-64
2023/11/29 03:39:37;;;;;;;9.93;5.22;;;;;;;-4.06;100.00;96350.03;5047600;28;20049;-64
2023/11/29 03:42:04;;;;;;;10.15;5.93;;;;;;;-4.09;100.00;96345.94;5040856;28;20053;-64
2023/11/29 03:44:31;;;;;;;12.75;5.78;;;;;;;-4.09;100.00;96347.78;5039245;28;20040;-64
2023/11/29 03:46:57;;;;;;;10.63;5.20;;;;;;;-4.05;100.00;96349.84;5044019;28;20080;-64
2023/11/29 03:49:24;;;;;;;9.48;4.38;;;;;;;-3.88;100.00;96339.06;5030326;28;20102;-63
2023/11/29 03:51:52;;;;;;;10.02;5.18;;;;;;;-3.70;100.00;96332.53;5041459;28;20128;-63
2023/11/29 03:54:19;;;;;;;10.73;5.22;;;;;;;-3.88;100.00;96343.56;5050724;28;20049;-63
2023/11/29 03:56:46;;;;;;;8.88;4.28;;;;;;;-3.74;100.00;96329.47;5034915;28;20048;-65
2023/11/29 03:59:12;;;;;;;10.20;5.53;;;;;;;-3.89;100.00;96332.13;5037480;28;20049;-64
2023/11/29 04:01:39;;;;;;;8.98;4.50;;;;;;;-3.86;100.00;96325.66;5027944;28;20110;-63
2023/11/29 04:04:06;;;;;;;9.82;4.68;;;;;;;-3.90;100.00;96319.94;5041286;28;20087;-64
2023/11/29 04:06:32;;;;;;;10.40;4.82;;;;;;;-3.91;100.00;96312.97;5048295;28;20640;-64
2023/11/29 04:08:59;;;;;;;6.88;4.13;;;;;;;-4.07;100.00;96308.72;5034679;28;20547;-64
2023/11/29 04:11:25;;;;;;;8.93;4.60;;;;;;;-3.92;100.00;96304.25;5032949;28;20421;-63
2023/11/29 04:13:52;;;;;;;8.32;4.43;;;;;;;-3.75;100.00;96304.03;5032741;28;20043;-63
2023/11/29 04:16:21;;;;;;;7.10;4.10;;;;;;;-3.61;100.00;96298.84;5039598;28;20042;-64
2023/11/29 04:18:49;;;;;;;11.45;5.72;;;;;;;-3.47;100.00;96297.97;5040625;28;20502;-64
2023/11/29 04:21:27;;;;;;;9.00;4.68;;;;;;;-3.49;100.00;96299.16;5034426;28;20041;-64
2023/11/29 04:23:55;;;;;;;10.13;4.60;;;;;;;-3.50;100.00;96293.06;5029105;28;20111;-65
2023/11/29 04:26:33;;;;;;;7.18;3.63;;;;;;;-3.58;100.00;96285.25;5040299;28;20048;-64
2023/11/29 04:29:02;;;;;;;9.88;5.00;;;;;;;-3.51;100.00;96288.75;5030875;28;20417;-65
2023/11/29 04:31:29;;;;;;;7.22;3.90;;;;;;;-3.45;100.00;96290.66;5033450;28;20460;-65
2023/11/29 04:33:56;;;;;;;7.82;3.80;;;;;;;-3.55;100.00;96290.97;5030999;28;20647;-64
2023/11/29 04:36:23;;;;;;;6.65;4.22;;;;;;;-3.61;100.00;96289.06;5037843;28;20044;-64
2023/11/29 04:38:52;;;;;;;8.45;4.65;;;;;;;-3.68;100.00;96290.84;5035919;28;20040;-64
2023/11/29 04:41:21;;;;;;;9.70;4.28;;;;;;;-3.80;100.00;96291.34;5036751;28;20034;-64
2023/11/29 04:43:49;;;;;;;8.10;4.28;;;;;;;-3.87;100.00;96282.50;5033023;28;20040;-64
2023/11/29 04:46:15;;;;;;;8.00;4.50;;;;;;;-4.09;100.00;96284.31;5038220;28;20381;-64
2023/11/29 04:48:43;;;;;;;9.75;4.70;;;;;;;-4.16;100.00;96281.59;5043043;28;21133;-64
2023/11/29 04:51:11;;;;;;;9.85;4.47;;;;;;;-4.25;100.00;96290.59;5031050;28;20029;-64
2023/11/29 04:53:38;;;;;;;8.02;4.03;;;;;;;-4.10;100.00;96287.94;5034896;28;20049;-64
2023/11/29 04:56:06;;;;;;;9.88;5.00;;;;;;;-4.12;100.00;96288.16;5027352;28;21657;-63
2023/11/29 04:58:39;;;;;;;8.45;4.00;;;;;;;-3.88;100.00;96286.16;5043498;28;20041;-64
2023/11/29 05:01:08;;;;;;;7.95;4.55;;;;;;;-3.85;100.00;96277.88;5034786;28;20041;-63
2023/11/29 05:03:36;;;;;;;10.88;4.75;;;;;;;-3.98;100.00;96275.06;5041161;28;20037;-64
2023/11/29 05:06:04;;;;;;;8.30;4.03;;;;;;;-3.99;100.00;96279.53;5029748;28;20124;-64
2023/11/29 05:08:35;;;;;;;9.00;4.78;;;;;;;-3.75;100.00;96268.78;5035904;28;20049;-64
2023/11/29 05:11:06;;;;;;;8.35;4.60;;;;;;;-3.65;100.00;96266.66;5033570;28;20125;-64
2023/11/29 05:13:34;;;;;;;8.32;4.18;;;;;;;-3.72;100.00;96268.44;5049328;28;20048;-64
2023/11/29 05:16:00;;;;;;;9.07;4.80;;;;;;;-3.60;100.00;96266.09;5038294;28;20068;-64
2023/11/29 05:18:27;;;;;;;9.88;4.80;;;;;;;-3.59;100.00;96267.72;5039255;28;20033;-64
2023/11/29 05:20:54;;;;;;;7.38;4.30;;;;;;;-3.42;100.00;96268.28;5038056;28;20049;-64
2023/11/29 05:23:21;;;;;;;10.05;4.63;;;;;;;-3.18;100.00;96269.72;5045234;28;20041;-64
2023/11/29 05:25:47;;;;;;;12.65;5.20;;;;;;;-3.01;100.00;96264.13;5047318;28;20051;-65
2023/11/29 05:28:14;;;;;;;7.40;4.25;;;;;;;-2.97;100.00;96256.59;5037966;28;20069;-64
2023/11/29 05:30:41;;;;;;;8.90;4.40;;;;;;;-3.04;100.00;96262.69;5041185;28;20069;-64
2023/11/29 05:33:08;;;;;;;8.32;4.50;;;;;;;-3.03;100.00;96258.19;5041392;28;20037;-64
2023/11/29 05:35:34;;;;;;;9.20;4.75;;;;;;;-2.98;100.00;96254.97;5034674;28;20076;-63
2023/11/29 05:38:02;;;;;;;8.82;4.50;;;;;;;-2.93;100.00;96255.22;5040024;28;20128;-64
2023/11/29 05:40:28;;;;;;;9.73;4.72;;;;;;;-2.81;100.00;96252.84;5044263;28;20508;-64
2023/11/29 05:42:55;;;;;;;14.52;5.50;;;;;;;-2.84;100.00;96264.63;5042923;28;20040;-64
2023/11/29 05:45:21;;;;;;;9.65;4.13;;;;;;;-2.83;100.00;96268.94;5040052;28;20060;-64
2023/11/29 05:47:48;;;;;;;10.20;5.82;;;;;;;-2.75;100.00;96273.28;5034134;28;20068;-64
2023/11/29 05:50:15;;;;;;;9.48;5.07;;;;;;;-2.74;100.00;96277.53;5047066;28;20508;-63
2023/11/29 05:52:41;;;;;;;9.75;5.15;;;;;;;-2.70;100.00;96273.50;5032081;28;20127;-64
2023/11/29 05:55:09;;;;;;;8.00;4.35;;;;;;;-2.66;100.00;96276.59;5046950;28;20079;-63
2023/11/29 05:57:35;;;;;;;7.95;4.57;;;;;;;-2.65;100.00;96272.94;5039153;28;20051;-64
2023/11/29 06:00:08;;;;;;;8.45;4.55;;;;;;;-2.98;100.00;96269.06;5038468;28;20042;-64
2023/11/29 06:02:55;;;;;;;10.63;6.63;;;;;;;-2.98;100.00;96257.63;5040117;28;20037;-63
2023/11/29 06:05:21;;;;;;;10.18;4.43;;;;;;;-2.91;100.00;96254.00;5042373;28;20087;-64
2023/11/29 06:07:48;;;;;;;8.98;5.00;;;;;;;-2.71;100.00;96263.91;5038634;28;20040;-64
2023/11/29 06:10:15;;;;;;;9.63;5.20;;;;;;;-2.58;100.00;96271.13;5038592;28;20147;-64
2023/11/29 06:12:41;;;;;;;12.10;4.93;;;;;;;-2.55;100.00;96269.94;5033145;28;20049;-64
2023/11/29 06:15:08;;;;;;;11.13;5.70;;;;;;;-2.51;100.00;96277.28;5039757;28;20140;-63
2023/11/29 06:17:36;;;;;;;9.98;4.85;;;;;;;-2.41;100.00;96274.28;5041249;28;20070;-63
2023/11/29 06:20:09;;;;;;;8.80;5.13;;;;;;;-2.37;100.00;96282.66;5046342;28;20040;-64
2023/11/29 06:22:36;;;;;;;8.38;4.75;;;;;;;-2.24;100.00;96290.66;5041175;28;20063;-64
2023/11/29 06:25:04;;;;;;;10.40;4.93;;;;;;;-2.12;100.00;96284.81;5038416;28;20727;-64
2023/11/29 06:27:31;;;;;;;7.43;3.75;;;;;;;-1.93;100.00;96287.72;5040674;28;20041;-63
2023/11/29 06:29:58;;;;;;;6.72;4.05;;;;;;;-1.94;100.00;96286.09;5041257;28;20056;-64
2023/11/29 06:32:24;;;;;;;7.32;4.55;;;;;;;-1.86;100.00;96289.38;5032619;28;20045;-65
2023/11/29 06:34:52;;;;;;;9.25;5.43;;;;;;;-1.92;100.00;96286.72;5030199;28;20046;-64
2023/11/29 06:37:19;;;;;;;8.70;4.13;;;;;;;-1.79;100.00;96283.28;5032589;28;20049;-64
2023/11/29 06:39:48;;;;;;;7.22;4.00;;;;;;;-1.71;100.00;96283.91;5033745;28;20063;-65
2023/11/29 06:42:16;;;;;;;7.97;4.32;;;;;;;-1.79;100.00;96289.41;5034103;28;20064;-65
2023/11/29 06:44:43;;;;;;;7.13;4.20;;;;;;;-1.78;100.00;96291.03;5040301;28;20504;-64
2023/11/29 06:47:09;;;;;;;7.70;4.10;;;;;;;-1.78;100.00;96282.25;5035734;28;20052;-64
2023/11/29 06:49:36;;;;;;;8.95;4.28;;;;;;;-1.72;100.00;96292.06;5046127;28;20052;-65
2023/11/29 06:52:03;;;;;;;6.88;3.45;;;;;;;-1.71;100.00;96296.34;5032972;28;20037;-65
2023/11/29 06:54:30;;;;;;;7.80;4.60;;;;;;;-1.90;100.00;96296.13;5039489;28;20059;-62
2023/11/29 06:56:56;;;;;;;8.25;4.38;;;;;;;-2.05;100.00;96293.59;5047439;28;20127;-63
2023/11/29 06:59:23;;;;;;;8.50;4.80;;;;;;;-1.92;100.00;96284.88;5043926;28;20045;-63
2023/11/29 07:01:49;;;;;;;7.45;4.22;;;;;;;-1.79;100.00;96272.66;5037636;28;20124;-64
2023/11/29 07:04:16;;;;;;;6.75;4.13;;;;;;;-1.86;100.00;96278.78;5041644;28;20041;-65
2023/11/29 07:06:43;;;;;;;7.40;4.35;;;;;;;-1.79;100.00;96273.47;5043010;28;20048;-62
2023/11/29 07:09:13;;;;;;;9.13;4.85;;;;;;;-1.89;100.00;96275.69;5044026;28;20688;-64
2023/11/29 07:11:40;;;;;;;7.45;4.00;;;;;;;-1.83;100.00;96288.16;5039923;28;20073;-63
2023/11/29 07:14:07;;;;;;;10.23;4.70;;;;;;;-1.84;100.00;96284.69;5046489;28;20116;-64
2023/11/29 07:16:34;;;;;;;8.35;4.45;;;;;;;-1.78;100.00;96291.03;5042883;28;20049;-63
2023/11/29 07:19:00;;;;;;;8.25;4.50;;;;;;;-1.85;100.00;96287.53;5040001;28;20052;-65
2023/11/29 07:21:27;;;;;;;7.40;4.40;;;;;;;-1.76;100.00;96286.38;5041992;28;20148;-64
2023/11/29 07:23:53;;;;;;;9.65;3.92;;;;;;;-1.67;100.00;96280.88;5043684;28;20115;-64
2023/11/29 07:26:20;;;;;;;6.13;3.90;;;;;;;-1.70;100.00;96271.44;5040250;28;20147;-64
2023/11/29 07:28:47;;;;;;;8.35;4.18;;;;;;;-1.73;100.00;96271.88;5038717;28;20048;-64
2023/11/29 07:31:14;;;;;;;9.98;5.45;;;;;;;-1.86;100.00;96264.69;5035834;28;20400;-63
2023/11/29 07:33:41;;;;;;;10.00;5.22;;;;;;;-1.98;100.00;96267.91;5042930;28;20443;-63
2023/11/29 07:36:12;;;;;;;8.18;4.55;;;;;;;-1.88;100.00;96277.34;5035625;28;20045;-63
2023/11/29 07:38:40;;;;;;;7.63;4.38;;;;;;;-1.91;100.00;96275.91;5045139;28;20052;-64
2023/11/29 07:41:07;;;;;;;8.05;4.15;;;;;;;-1.80;100.00;96273.69;5035329;28;20052;-65
2023/11/29 07:43:34;;;;;;;7.47;4.20;;;;;;;-1.76;100.00;96266.97;5037386;28;20578;-64
2023/11/29 07:46:00;;;;;;;8.98;4.97;;;;;;;-1.74;100.00;96276.34;5041461;28;20033;-64
2023/11/29 07:48:27;;;;;;;9.48;3.97;;;;;;;-1.69;100.00;96278.41;5046862;28;20049;-64
2023/11/29 07:50:56;;;;;;;7.40;3.53;;;;;;;-1.56;100.00;96274.94;5043731;28;20044;-65
2023/11/29 07:53:23;;;;;;;6.22;3.35;;;;;;;-1.65;100.00;96277.00;5040753;28;20049;-64
2023/11/29 07:55:50;;;;;;;7.63;3.70;;;;;;;-1.71;100.00;96277.78;5035886;28;20124;-64
2023/11/29 07:58:16;;;;;;;7.90;4.82;;;;;;;-1.74;100.00;96267.56;5035037;28;20043;-64
2023/11/29 08:00:54;;;;;;;7.88;4.35;;;;;;;-1.62;100.00;96273.91;5033772;28;20045;-64
2023/11/29 08:03:20;;;;;;;5.75;3.60;;;;;;;-1.58;100.00;96271.69;5043712;28;20116;-64
2023/11/29 08:05:47;;;;;;;6.03;3.47;;;;;;;-1.52;100.00;96276.19;5043580;28;20045;-64
2023/11/29 08:08:13;;;;;;;9.57;4.57;;;;;;;-1.60;100.00;96271.91;5049717;28;20045;-64
2023/11/29 08:10:40;;;;;;;9.13;4.72;;;;;;;-1.59;100.00;96273.53;5045924;28;20055;-64
2023/11/29 08:13:07;;;;;;;6.68;4.00;;;;;;;-1.65;100.00;96282.31;5040194;28;20124;-64
2023/11/29 08:15:35;;;;;;;7.35;3.83;;;;;;;-1.51;100.00;96288.44;5050312;28;20044;-64
2023/11/29 08:18:02;;;;;;;8.25;4.70;;;;;;;-1.54;100.00;96286.19;5049795;28;20392;-65
2023/11/29 08:20:29;;;;;;;8.73;4.15;;;;;;;-1.60;100.00;96281.69;5035914;28;20049;-64
2023/11/29 08:22:56;;;;;;;6.95;3.53;;;;;;;-1.57;100.00;96283.94;5051197;28;20033;-64
2023/11/29 08:25:25;;;;;;;10.32;6.07;;;;;;;-1.64;100.00;96289.25;5047391;28;20045;-64
2023/11/29 08:27:53;;;;;;;7.55;4.15;;;;;;;-1.54;100.00;96280.91;5037347;28;20059;-64
2023/11/29 08:30:19;;;;;;;7.85;4.95;;;;;;;-1.54;100.00;96278.25;5044034;28;20109;-64
2023/11/29 08:32:46;;;;;;;8.68;4.50;;;;;;;-1.53;100.00;96282.53;5039467;28;20048;-64
2023/11/29 08:35:13;;;;;;;7.80;3.72;;;;;;;-1.51;100.00;96287.63;5047214;28;20041;-65
2023/11/29 08:37:40;;;;;;;8.45;4.32;;;;;;;-1.52;100.00;96281.50;5042820;28;20610;-65
2023/11/29 08:40:07;;;;;;;6.55;3.42;;;;;;;-1.46;100.00;96283.34;5040439;28;20571;-64
2023/11/29 08:42:34;;;;;;;7.40;4.30;;;;;;;-1.44;100.00;96275.16;5044614;28;20132;-64
2023/11/29 08:45:01;;;;;;;6.15;3.78;;;;;;;-1.36;100.00;96284.78;5050618;28;20660;-64
2023/11/29 08:47:28;;;;;;;8.57;4.25;;;;;;;-1.38;100.00;96285.00;5037117;28;20044;-64
2023/11/29 08:49:55;;;;;;;6.63;4.20;;;;;;;-1.36;100.00;96284.78;5044358;28;20036;-65
2023/11/29 08:52:22;;;;;;;5.85;3.30;;;;;;;-1.51;100.00;96283.13;5050105;28;20056;-64
2023/11/29 08:54:53;;;;;;;8.40;4.63;;;;;;;-1.49;100.00;96289.06;5043471;28;20044;-64
2023/11/29 08:57:24;;;;;;;10.23;4.97;;;;;;;-1.58;100.00;96277.81;5034643;28;20413;-64
2023/11/29 08:59:51;;;;;;;8.40;4.72;;;;;;;-1.52;100.00;96273.53;5036968;28;20048;-64
2023/11/29 09:02:22;;;;;;;7.50;3.72;;;;;;;-1.35;100.00;96281.94;5039447;28;20044;-64
2023/11/29 09:04:50;;;;;;;7.60;4.45;;;;;;;-1.37;100.00;96269.88;5036879;28;20126;-64
2023/11/29 09:07:17;;;;;;;7.65;3.78;;;;;;;-1.34;100.00;96272.13;5046033;28;20040;-64
2023/11/29 09:09:44;;;;;;;7.32;4.50;;;;;;;-1.31;100.00;96259.28;5027575;28;20049;-65
2023/11/29 09:12:11;;;;;;;6.93;3.72;;;;;;;-1.34;100.00;96254.34;5037611;28;20036;-64
2023/11/29 09:14:38;;;;;;;6.20;3.72;;;;;;;-1.31;100.00;96256.63;5043865;28;20094;-65
2023/11/29 09:17:05;;;;;;;9.52;4.70;;;;;;;-1.19;100.00;96254.16;5036310;28;20389;-65
2023/11/29 09:19:32;;;;;;;7.18;4.28;;;;;;;-1.22;100.00;96259.88;5044097;28;20575;-64
2023/11/29 09:22:01;;;;;;;7.38;4.15;;;;;;;-1.10;100.00;96253.94;5037516;28;20067;-65
2023/11/29 09:24:27;;;;;;;6.70;3.72;;;;;;;-1.14;100.00;96252.72;5039669;28;20041;-65
2023/11/29 09:26:57;;;;;;;6.43;3.60;;;;;;;-1.02;100.00;96248.44;5038216;28;20065;-64
2023/11/29 09:29:28;;;;;;;6.97;3.90;;;;;;;-1.07;100.00;96248.22;5040905;28;20040;-65
2023/11/29 09:31:54;;;;;;;6.15;3.47;;;;;;;-1.00;100.00;96257.00;5035689;28;20132;-65
2023/11/29 09:34:22;;;;;;;7.53;4.25;;;;;;;-0.83;100.00;96262.72;5038801;28;20041;-64
2023/11/29 09:36:50;;;;;;;5.60;3.40;;;;;;;-0.59;100.00;96259.59;5034133;28;20038;-65
2023/11/29 09:39:17;;;;;;;6.55;3.80;;;;;;;-0.73;100.00;96270.28;5043014;28;20059;-65
2023/11/29 09:41:44;;;;;;;9.27;3.80;;;;;;;-0.85;100.00;96259.44;5043114;28;20040;-64
2023/11/29 09:44:12;;;;;;;5.60;3.40;;;;;;;-0.81;100.00;96275.81;5038932;28;20735;-65
2023/11/29 09:46:39;;;;;;;7.20;3.63;;;;;;;-0.83;100.00;96268.03;5039613;28;20049;-65
2023/11/29 09:49:06;;;;;;;6.60;3.72;;;;;;;-0.81;100.00;96265.19;5039768;28;20190;-64
2023/11/29 09:51:33;;;;;;;8.73;3.95;;;;;;;-0.80;100.00;96266.81;5045067;28;20504;-65
2023/11/29 09:53:59;;;;;;;6.68;4.78;;;;;;;-0.76;100.00;96261.88;5040981;28;20036;-64
2023/11/29 09:56:27;;;;;;;6.53;3.28;;;;;;;-0.76;100.00;96260.03;5039342;28;20044;-64
2023/11/29 09:58:55;;;;;;;7.07;3.75;;;;;;;-0.67;100.00;96264.13;5036804;28;20044;-65
2023/11/29 10:01:22;;;;;;;7.57;3.78;;;;;;;-0.68;100.00;96257.16;5034574;28;20132;-64
2023/11/29 10:04:04;;;;;;;6.03;3.30;;;;;;;-0.63;100.00;96259.19;5042747;28;20049;-64
2023/11/29 10:06:32;;;;;;;8.45;3.75;;;;;;;-0.69;100.00;96252.06;5033735;28;20048;-66
2023/11/29 10:09:08;;;;;;;7.18;4.15;;;;;;;-0.72;100.00;96255.13;5046083;28;20059;-65
2023/11/29 10:11:35;;;;;;;6.50;3.35;;;;;;;-0.67;100.00;96255.31;5040065;28;20032;-63
2023/11/29 10:14:04;;;;;;;6.47;3.60;;;;;;;-0.63;100.00;96256.53;5043098;28;20053;-66
2023/11/29 10:16:32;;;;;;;6.50;3.58;;;;;;;-0.67;100.00;96255.31;5042166;28;20125;-65
2023/11/29 10:19:02;;;;;;;6.47;3.90;;;;;;;-0.60;100.00;96255.28;5044647;28;20056;-64
2023/11/29 10:21:28;;;;;;;7.78;3.95;;;;;;;-0.70;100.00;96250.44;5042455;28;20084;-64
2023/11/29 10:23:55;;;;;;;5.60;3.58;;;;;;;-0.80;100.00;96245.53;5041908;28;20504;-65
2023/11/29 10:26:22;;;;;;;6.72;3.88;;;;;;;-0.77;100.00;96239.81;5033636;28;20467;-64
2023/11/29 10:28:51;;;;;;;6.20;3.70;;;;;;;-0.80;100.00;96238.34;5033269;28;20497;-64
2023/11/29 10:31:18;;;;;;;7.30;4.22;;;;;;;-0.71;100.00;96238.97;5036711;28;20075;-65
2023/11/29 10:33:46;;;;;;;6.15;3.60;;;;;;;-0.58;100.00;96235.47;5044585;28;20687;-64
2023/11/29 10:36:13;;;;;;;6.05;3.13;;;;;;;-0.44;100.00;96233.56;5038754;28;20040;-63
2023/11/29 10:38:44;;;;;;;6.80;3.08;;;;;;;-0.32;100.00;96238.25;5031578;28;20047;-65
2023/11/29 10:41:15;;;;;;;5.32;3.05;;;;;;;-0.27;100.00;96230.44;5040855;28;20124;-65
2023/11/29 10:43:44;;;;;;;6.20;3.80;;;;;;;-0.31;100.00;96226.56;5043272;28;20040;-65
2023/11/29 10:46:37;;;;;;;7.60;3.65;;;;;;;-0.23;100.00;96223.69;5036032;28;20048;-65
2023/11/29 10:49:19;;;;;;;4.47;2.63;;;;;;;-0.11;100.00;96215.03;5033944;28;20053;-65
2023/11/29 10:51:46;;;;;;;5.50;3.03;;;;;;;-0.08;100.00;96215.41;5032303;28;20150;-64
2023/11/29 10:54:16;;;;;;;5.72;2.83;;;;;;;-0.02;100.00;96219.91;5026508;28;20072;-64
2023/11/29 10:57:04;;;;;;;6.50;3.22;;;;;;;0.20;100.00;96221.41;5043415;28;20676;-65
2023/11/29 10:59:33;;;;;;;6.50;3.40;;;;;;;0.37;100.00;96209.22;5032248;28;20051;-64
2023/11/29 11:02:00;;;;;;;8.23;3.13;;;;;;;0.64;100.00;96211.69;5038352;28;20036;-64
2023/11/29 11:04:32;;;;;;;6.47;2.50;;;;;;;0.59;100.00;96206.19;5040532;28;20111;-63
2023/11/29 11:06:59;;;;;;;6.20;3.30;;;;;;;0.52;100.00;96205.44;5034503;28;20543;-64
2023/11/29 11:09:30;;;;;;;5.55;3.20;;;;;;;0.41;100.00;96201.63;5037422;28;20041;-64
2023/11/29 11:12:00;;;;;;;5.85;3.10;;;;;;;0.45;100.00;96202.00;5032735;28;20124;-64
2023/11/29 11:14:48;;;;;;;4.68;2.63;;;;;;;0.48;100.00;96194.38;5034841;28;20672;-65
2023/11/29 11:17:18;;;;;;;4.88;2.92;;;;;;;0.51;100.00;96195.78;5034108;28;20042;-63
2023/11/29 11:19:47;;;;;;;4.80;2.92;;;;;;;0.57;100.00;96191.44;5041007;28;20496;-64
2023/11/29 11:22:22;;;;;;;5.38;2.90;;;;;;;0.59;100.00;96184.88;5035191;28;20102;-64
2023/11/29 11:25:04;;;;;;;6.05;3.28;;;;;;;0.71;100.00;96182.34;5037416;28;20722;-64